Flight Track Log - Related Links

Times and Time Zones

All times are in EDT time to prevent confusion due to time zone crossing. See the JZA8279 flight status page for this flight to view local times or setup timezone preferences in your user account.

Time Position Orientation Groundspeed Altitude Reporting Facility
EDT Latitude Longitude Course Direction KTS MPH feet Rate Location/Type
Thu 02:30:27 PM 54.2667 -130.4667 136° Southeast 210 242 700  Level Vancouver Center
Thu 02:31:27 PM 54.2333 -130.4833 196° South 140 161 2,300 1,300 Climbing Vancouver Center
Thu 02:32:27 PM 54.2000 -130.4167 131° Southeast 140 161 3,300 1,200 Climbing Vancouver Center
Thu 02:33:27 PM 54.1667 -130.3667 139° Southeast 160 184 4,700 1,300 Climbing Vancouver Center
Thu 02:34:27 PM 54.1500 -130.3000 113° Southeast 170 196 5,900 1,200 Climbing Vancouver Center
Thu 02:35:27 PM 54.1000 -130.2333 142° Southeast 170 196 7,100 1,200 Climbing Vancouver Center
Thu 02:36:00 PM 53.9432 -129.8776 136° Southeast  Level Estimated
Thu 02:36:27 PM 54.0667 -130.2000 150° Southeast 170 196 8,300  Level Vancouver Center
Thu 02:37:27 PM 54.0333 -130.1333 130° Southeast 170 196 9,600 1,050 Climbing Vancouver Center
Thu 02:38:27 PM 54.0000 -130.0833 139° Southeast 180 207 10,400 900 Climbing Vancouver Center
Thu 02:39:27 PM 53.9500 -130.0167 142° Southeast 200 230 11,400 1,000 Climbing Vancouver Center
Thu 02:40:27 PM 53.9333 -129.9167 106° East 200 230 12,400 950 Climbing Vancouver Center
Thu 02:41:27 PM 53.8833 -129.8667 149° Southeast 210 242 13,300 950 Climbing Vancouver Center
Thu 02:42:27 PM 53.8333 -129.8000 142° Southeast 210 242 14,300 950 Climbing Vancouver Center
Thu 02:43:27 PM 53.8000 -129.7333 130° Southeast 210 242 15,200 950 Climbing Vancouver Center
Thu 02:44:27 PM 53.7500 -129.6500 135° Southeast 210 242 16,200 900 Climbing Vancouver Center
Thu 02:45:27 PM 53.7167 -129.5833 130° Southeast 210 242 17,000 750 Climbing Vancouver Center
Thu 02:46:27 PM 53.6833 -129.5167 130° Southeast 210 242 17,700 600 Climbing Vancouver Center
Thu 02:47:27 PM 53.6333 -129.4500 142° Southeast 210 242 18,200 600 Climbing Vancouver Center
Thu 02:48:27 PM 53.5833 -129.3667 135° Southeast 220 253 18,900 700 Climbing Vancouver Center
Thu 02:49:27 PM 53.5333 -129.3000 142° Southeast 220 253 19,600 700 Climbing Vancouver Center
Thu 02:50:27 PM 53.5167 -129.2167 109° East 220 253 20,300 700 Climbing Vancouver Center
Thu 02:51:27 PM 53.4667 -129.1500 142° Southeast 220 253 21,000 600 Climbing Vancouver Center
Thu 02:52:27 PM 53.4167 -129.1000 149° Southeast 220 253 21,500 550 Climbing Vancouver Center
Thu 02:53:27 PM 53.3667 -129.0000 130° Southeast 230 265 22,100 550 Climbing Vancouver Center
Thu 02:54:27 PM 53.3167 -128.9333 141° Southeast 230 265 22,600 450 Climbing Vancouver Center
Thu 02:55:27 PM 53.2667 -128.8500 135° Southeast 230 265 23,000 200 Climbing Vancouver Center
Thu 02:56:27 PM 53.2333 -128.7833 130° Southeast 240 276 23,000  Level Vancouver Center
Thu 02:57:27 PM 53.1833 -128.7000 135° Southeast 250 288 23,000  Level Vancouver Center
Thu 02:58:27 PM 53.1333 -128.6167 135° Southeast 260 299 23,000  Level Vancouver Center
Thu 02:59:27 PM 53.0667 -128.5167 138° Southeast 270 311 23,000  Level Vancouver Center
Thu 03:00:27 PM 53.0167 -128.4333 135° Southeast 270 311 23,000  Level Vancouver Center
Thu 03:01:27 PM 52.9667 -128.3500 135° Southeast 270 311 23,000  Level Vancouver Center
Thu 03:02:27 PM 52.9167 -128.2500 130° Southeast 280 322 23,000  Level Vancouver Center
Thu 03:03:27 PM 52.8500 -128.1667 143° Southeast 270 311 23,000  Level Vancouver Center
Thu 03:04:27 PM 52.8000 -128.0833 135° Southeast 270 311 23,000  Level Vancouver Center
Thu 03:05:27 PM 52.7500 -128.0167 141° Southeast 270 311 23,000  Level Vancouver Center
Thu 03:06:27 PM 52.6833 -127.9000 133° Southeast 280 322 23,000  Level Vancouver Center
Thu 03:07:27 PM 52.6500 -127.8167 123° Southeast 270 311 23,000  Level Vancouver Center
Thu 03:08:27 PM 52.5833 -127.7333 143° Southeast 270 311 23,000  Level Vancouver Center
Thu 03:09:27 PM 52.5333 -127.6333 129° Southeast 280 322 23,000  Level Vancouver Center
Thu 03:10:27 PM 52.4667 -127.5500 143° Southeast 270 311 23,000  Level Vancouver Center
Thu 03:11:27 PM 52.4167 -127.5000 149° Southeast 270 311 23,000  Level Vancouver Center
Thu 03:12:27 PM 52.3500 -127.4000 137° Southeast 270 311 23,000  Level Vancouver Center
Thu 03:13:27 PM 52.3167 -127.3167 123° Southeast 270 311 23,000  Level Vancouver Center
Thu 03:14:27 PM 52.2667 -127.2333 134° Southeast 280 322 23,000  Level Vancouver Center
Thu 03:15:27 PM 52.2000 -127.1500 143° Southeast 270 311 23,000  Level Vancouver Center
Thu 03:16:27 PM 52.1500 -127.0667 134° Southeast 280 322 23,000  Level Vancouver Center
Thu 03:17:27 PM 52.0833 -126.9833 142° Southeast 270 311 23,000  Level Vancouver Center
Thu 03:18:27 PM 52.0333 -126.9000 134° Southeast 270 311 23,000  Level Vancouver Center
Thu 03:19:27 PM 51.9667 -126.8000 137° Southeast 280 322 23,000  Level Vancouver Center
Thu 03:20:27 PM 51.9167 -126.7167 134° Southeast 280 322 23,000  Level Vancouver Center
Thu 03:21:27 PM 51.8667 -126.6333 134° Southeast 270 311 23,000  Level Vancouver Center
Thu 03:22:27 PM 51.8167 -126.5500 134° Southeast 280 322 23,000  Level Vancouver Center
Thu 03:23:27 PM 51.7500 -126.4667 142° Southeast 270 311 23,000  Level Vancouver Center
Thu 03:24:27 PM 51.7000 -126.3833 134° Southeast 270 311 23,000  Level Vancouver Center
Thu 03:25:27 PM 51.6333 -126.3000 142° Southeast 280 322 23,000  Level Vancouver Center
Thu 03:26:27 PM 51.5833 -126.2167 134° Southeast 270 311 23,000  Level Vancouver Center
Thu 03:27:27 PM 51.5167 -126.1333 142° Southeast 280 322 23,000  Level Vancouver Center
Thu 03:28:27 PM 51.4667 -126.0500 134° Southeast 280 322 23,000  Level Vancouver Center
Thu 03:29:27 PM 51.4000 -125.9667 142° Southeast 270 311 23,000  Level Vancouver Center
Thu 03:30:27 PM 51.3500 -125.8833 134° Southeast 280 322 23,000  Level Vancouver Center
Thu 03:31:27 PM 51.3000 -125.8000 134° Southeast 280 322 23,000  Level Vancouver Center
Thu 03:32:27 PM 51.2500 -125.7167 134° Southeast 280 322 23,000  Level Vancouver Center
Thu 03:33:27 PM 51.1833 -125.6333 142° Southeast 280 322 23,000  Level Vancouver Center
Thu 03:34:27 PM 51.1333 -125.5500 134° Southeast 280 322 23,000  Level Vancouver Center
Thu 03:35:27 PM 51.0667 -125.4667 142° Southeast 280 322 23,000  Level Vancouver Center
Thu 03:36:27 PM 51.0167 -125.3833 134° Southeast 280 322 23,000  Level Vancouver Center
Thu 03:37:27 PM 50.9500 -125.3167 148° Southeast 280 322 23,000  Level Vancouver Center
Thu 03:38:27 PM 50.9000 -125.2333 134° Southeast 280 322 23,000  Level Vancouver Center
Thu 03:39:27 PM 50.8333 -125.1500 142° Southeast 280 322 23,000  Level Vancouver Center
Thu 03:40:27 PM 50.7833 -125.0667 133° Southeast 280 322 23,000  Level Vancouver Center
Thu 03:41:27 PM 50.7167 -124.9833 142° Southeast 280 322 23,000  Level Vancouver Center
Thu 03:42:27 PM 50.6667 -124.9000 133° Southeast 280 322 23,000  Level Vancouver Center
Thu 03:43:27 PM 50.6000 -124.8167 142° Southeast 280 322 23,000  Level Vancouver Center
Thu 03:44:27 PM 50.5500 -124.7500 140° Southeast 280 322 23,000  Level Vancouver Center
Thu 03:45:27 PM 50.4833 -124.6667 141° Southeast 280 322 23,000  Level Vancouver Center
Thu 03:46:27 PM 50.4333 -124.5833 133° Southeast 280 322 23,000  Level Vancouver Center
Thu 03:47:27 PM 50.3667 -124.5000 141° Southeast 280 322 23,000 -50 Level Vancouver Center
Thu 03:48:27 PM 50.3167 -124.4333 140° Southeast 280 322 22,900 -650 Descending Vancouver Center
Thu 03:49:27 PM 50.2500 -124.3500 141° Southeast 290 334 21,700 -1,300 Descending Vancouver Center
Thu 03:50:27 PM 50.1833 -124.2500 136° Southeast 310 357 20,300 -1,350 Descending Vancouver Center
Thu 03:51:27 PM 50.1167 -124.1667 141° Southeast 300 345 19,000 -1,150 Descending Vancouver Center
Thu 03:52:27 PM 50.0667 -124.0833 133° Southeast 300 345 18,000 -1,200 Descending Vancouver Center
Thu 03:53:27 PM 50.0000 -124.0000 141° Southeast 300 345 16,600 -1,350 Descending Vancouver Center
Thu 03:54:27 PM 49.9333 -123.9333 147° Southeast 290 334 15,300 -1,300 Descending Vancouver Center
Thu 03:55:27 PM 49.8667 -123.8167 132° Southeast 290 334 14,000 -1,250 Descending Vancouver Center
Thu 03:56:27 PM 49.8167 -123.7500 139° Southeast 290 334 12,800 -1,200 Descending Vancouver Center
Thu 03:57:27 PM 49.7500 -123.7000 154° Southeast 290 334 11,600 -1,250 Descending Vancouver Center
Thu 03:58:27 PM 49.6833 -123.6500 154° Southeast 280 322 10,300 -750 Descending Vancouver Center
Thu 03:59:27 PM 49.6167 -123.6000 154° Southeast 270 311 10,100 -100 Descending Vancouver Center
Thu 04:00:27 PM 49.5500 -123.5500 154° Southeast 270 311 10,100  Level Vancouver Center
Thu 04:01:27 PM 49.4833 -123.4833 147° Southeast 260 299 10,100  Level Vancouver Center
Thu 04:02:27 PM 49.4167 -123.4333 154° Southeast 260 299 10,100 -550 Level Vancouver Center
Thu 04:03:27 PM 49.3500 -123.3667 147° Southeast 270 311 9,000 -1,300 Descending Vancouver Center
Thu 04:04:27 PM 49.2833 -123.3167 154° Southeast 270 311 7,500 -1,500 Descending Vancouver Center
Thu 04:05:27 PM 49.2500 -123.2167 117° Southeast 260 299 6,000 -1,300 Descending Vancouver Center
Thu 04:06:27 PM 49.2500 -123.1167 90° East 260 299 4,900 -650 Descending Vancouver Center
Thu 04:07:27 PM 49.2333 -123.0000 102° East 250 288 4,700 -900 Descending Vancouver Center
Thu 04:08:27 PM 49.1833 -122.9500 147° Southeast 240 276 3,100 -1,500 Descending Vancouver Center
Thu 04:09:27 PM 49.1667 -123.0333 253° West 210 242 1,700 -1,400 Descending Vancouver Center

Login

Don't have an account? Register now (free) for customized features, flight alerts, and more!